sensor_id;sensor_type;location;lat;lon;timestamp;P1;durP1;ratioP1;P2;durP2;ratioP2
70866;SDS011;58487;53.474;49.470;2022-07-05T00:00:14;7.20;;;4.50;;
70866;SDS011;58487;53.474;49.470;2022-07-05T00:02:41;7.25;;;3.30;;
70866;SDS011;58487;53.474;49.470;2022-07-05T00:05:07;6.93;;;3.60;;
70866;SDS011;58487;53.474;49.470;2022-07-05T00:07:33;7.03;;;3.17;;
70866;SDS011;58487;53.474;49.470;2022-07-05T00:09:59;7.32;;;3.08;;
70866;SDS011;58487;53.474;49.470;2022-07-05T00:12:27;7.38;;;3.80;;
70866;SDS011;58487;53.474;49.470;2022-07-05T00:14:55;6.65;;;3.60;;
70866;SDS011;58487;53.474;49.470;2022-07-05T00:17:22;8.03;;;3.50;;
70866;SDS011;58487;53.474;49.470;2022-07-05T00:19:48;6.95;;;3.53;;
70866;SDS011;58487;53.474;49.470;2022-07-05T00:22:14;8.18;;;3.30;;
70866;SDS011;58487;53.474;49.470;2022-07-05T00:24:40;8.27;;;3.67;;
70866;SDS011;58487;53.474;49.470;2022-07-05T00:27:06;10.93;;;3.85;;
70866;SDS011;58487;53.474;49.470;2022-07-05T00:29:32;13.03;;;4.57;;
70866;SDS011;58487;53.474;49.470;2022-07-05T00:31:58;14.25;;;5.47;;
70866;SDS011;58487;53.474;49.470;2022-07-05T00:34:24;17.13;;;5.88;;
70866;SDS011;58487;53.474;49.470;2022-07-05T00:36:51;18.00;;;6.68;;
70866;SDS011;58487;53.474;49.470;2022-07-05T00:39:17;19.17;;;7.28;;
70866;SDS011;58487;53.474;49.470;2022-07-05T00:41:43;20.83;;;6.93;;
70866;SDS011;58487;53.474;49.470;2022-07-05T00:44:09;18.42;;;6.53;;
70866;SDS011;58487;53.474;49.470;2022-07-05T00:46:39;16.92;;;5.95;;
70866;SDS011;58487;53.474;49.470;2022-07-05T00:49:08;19.83;;;6.68;;
70866;SDS011;58487;53.474;49.470;2022-07-05T00:51:35;16.98;;;6.43;;
70866;SDS011;58487;53.474;49.470;2022-07-05T00:54:05;16.40;;;6.20;;
70866;SDS011;58487;53.474;49.470;2022-07-05T00:56:32;14.63;;;5.65;;
70866;SDS011;58487;53.474;49.470;2022-07-05T00:58:59;15.07;;;5.15;;
70866;SDS011;58487;53.474;49.470;2022-07-05T01:01:25;11.82;;;4.57;;
70866;SDS011;58487;53.474;49.470;2022-07-05T01:03:52;10.68;;;4.25;;
70866;SDS011;58487;53.474;49.470;2022-07-05T01:06:19;12.53;;;3.57;;
70866;SDS011;58487;53.474;49.470;2022-07-05T01:08:45;8.18;;;3.10;;
70866;SDS011;58487;53.474;49.470;2022-07-05T01:11:13;5.03;;;2.40;;
70866;SDS011;58487;53.474;49.470;2022-07-05T01:13:40;7.60;;;2.47;;
70866;SDS011;58487;53.474;49.470;2022-07-05T01:16:07;5.18;;;2.22;;
70866;SDS011;58487;53.474;49.470;2022-07-05T01:18:33;8.50;;;2.50;;
70866;SDS011;58487;53.474;49.470;2022-07-05T01:21:00;6.68;;;2.60;;
70866;SDS011;58487;53.474;49.470;2022-07-05T01:23:28;8.30;;;2.95;;
70866;SDS011;58487;53.474;49.470;2022-07-05T01:25:56;6.35;;;2.65;;
70866;SDS011;58487;53.474;49.470;2022-07-05T01:28:25;5.35;;;2.67;;
70866;SDS011;58487;53.474;49.470;2022-07-05T01:30:51;5.90;;;2.57;;
70866;SDS011;58487;53.474;49.470;2022-07-05T01:33:17;6.00;;;2.58;;
70866;SDS011;58487;53.474;49.470;2022-07-05T01:35:44;6.80;;;2.50;;
70866;SDS011;58487;53.474;49.470;2022-07-05T01:38:11;5.25;;;2.45;;
70866;SDS011;58487;53.474;49.470;2022-07-05T01:40:37;5.70;;;2.40;;
70866;SDS011;58487;53.474;49.470;2022-07-05T01:43:04;5.27;;;2.00;;
70866;SDS011;58487;53.474;49.470;2022-07-05T01:45:30;5.00;;;2.30;;
70866;SDS011;58487;53.474;49.470;2022-07-05T01:48:06;7.78;;;2.35;;
70866;SDS011;58487;53.474;49.470;2022-07-05T01:50:45;6.30;;;2.00;;
70866;SDS011;58487;53.474;49.470;2022-07-05T01:53:18;4.97;;;2.03;;
70866;SDS011;58487;53.474;49.470;2022-07-05T01:55:47;5.80;;;2.20;;
70866;SDS011;58487;53.474;49.470;2022-07-05T01:58:14;4.47;;;2.17;;
70866;SDS011;58487;53.474;49.470;2022-07-05T02:00:41;7.00;;;2.17;;
70866;SDS011;58487;53.474;49.470;2022-07-05T02:03:08;7.18;;;2.20;;
70866;SDS011;58487;53.474;49.470;2022-07-05T02:05:36;5.75;;;2.00;;
70866;SDS011;58487;53.474;49.470;2022-07-05T02:08:02;5.10;;;2.23;;
70866;SDS011;58487;53.474;49.470;2022-07-05T02:10:28;5.55;;;2.10;;
70866;SDS011;58487;53.474;49.470;2022-07-05T02:12:54;4.53;;;1.95;;
70866;SDS011;58487;53.474;49.470;2022-07-05T02:15:20;6.13;;;2.08;;
70866;SDS011;58487;53.474;49.470;2022-07-05T02:17:47;4.63;;;1.92;;
70866;SDS011;58487;53.474;49.470;2022-07-05T02:20:13;5.20;;;1.97;;
70866;SDS011;58487;53.474;49.470;2022-07-05T02:22:39;6.05;;;1.90;;
70866;SDS011;58487;53.474;49.470;2022-07-05T02:25:05;4.97;;;2.20;;
70866;SDS011;58487;53.474;49.470;2022-07-05T02:27:31;8.65;;;2.00;;
70866;SDS011;58487;53.474;49.470;2022-07-05T02:29:57;4.40;;;1.80;;
70866;SDS011;58487;53.474;49.470;2022-07-05T02:32:24;6.73;;;1.80;;
70866;SDS011;58487;53.474;49.470;2022-07-05T02:34:50;4.95;;;2.10;;
70866;SDS011;58487;53.474;49.470;2022-07-05T02:37:16;4.57;;;1.80;;
70866;SDS011;58487;53.474;49.470;2022-07-05T02:39:42;6.82;;;2.20;;
70866;SDS011;58487;53.474;49.470;2022-07-05T02:42:08;4.90;;;2.28;;
70866;SDS011;58487;53.474;49.470;2022-07-05T02:44:34;5.97;;;2.10;;
70866;SDS011;58487;53.474;49.470;2022-07-05T02:47:00;4.82;;;1.92;;
70866;SDS011;58487;53.474;49.470;2022-07-05T02:49:27;5.13;;;2.10;;
70866;SDS011;58487;53.474;49.470;2022-07-05T02:51:53;4.60;;;2.00;;
70866;SDS011;58487;53.474;49.470;2022-07-05T02:54:19;5.65;;;1.80;;
70866;SDS011;58487;53.474;49.470;2022-07-05T02:56:45;5.30;;;2.10;;
70866;SDS011;58487;53.474;49.470;2022-07-05T02:59:11;5.07;;;1.98;;
70866;SDS011;58487;53.474;49.470;2022-07-05T03:01:37;4.65;;;2.20;;
70866;SDS011;58487;53.474;49.470;2022-07-05T03:04:03;7.05;;;2.10;;
70866;SDS011;58487;53.474;49.470;2022-07-05T03:06:29;7.95;;;1.80;;
70866;SDS011;58487;53.474;49.470;2022-07-05T03:08:55;5.83;;;1.90;;
70866;SDS011;58487;53.474;49.470;2022-07-05T03:11:21;4.80;;;1.90;;
70866;SDS011;58487;53.474;49.470;2022-07-05T03:13:47;4.03;;;1.67;;
70866;SDS011;58487;53.474;49.470;2022-07-05T03:16:13;7.28;;;1.92;;
70866;SDS011;58487;53.474;49.470;2022-07-05T03:18:39;6.00;;;1.80;;
70866;SDS011;58487;53.474;49.470;2022-07-05T03:21:05;4.63;;;1.63;;
70866;SDS011;58487;53.474;49.470;2022-07-05T03:23:31;5.25;;;2.00;;
70866;SDS011;58487;53.474;49.470;2022-07-05T03:25:57;3.70;;;1.58;;
70866;SDS011;58487;53.474;49.470;2022-07-05T03:28:23;4.50;;;1.60;;
70866;SDS011;58487;53.474;49.470;2022-07-05T03:30:50;4.95;;;1.80;;
70866;SDS011;58487;53.474;49.470;2022-07-05T03:33:16;4.00;;;1.70;;
70866;SDS011;58487;53.474;49.470;2022-07-05T03:35:42;5.78;;;1.75;;
70866;SDS011;58487;53.474;49.470;2022-07-05T03:38:08;11.50;;;2.10;;
70866;SDS011;58487;53.474;49.470;2022-07-05T03:40:34;4.65;;;1.70;;
70866;SDS011;58487;53.474;49.470;2022-07-05T03:43:00;4.70;;;1.73;;
70866;SDS011;58487;53.474;49.470;2022-07-05T03:45:26;4.47;;;1.80;;
70866;SDS011;58487;53.474;49.470;2022-07-05T03:47:52;4.10;;;1.60;;
70866;SDS011;58487;53.474;49.470;2022-07-05T03:50:18;4.00;;;1.50;;
70866;SDS011;58487;53.474;49.470;2022-07-05T03:52:44;3.75;;;1.60;;
70866;SDS011;58487;53.474;49.470;2022-07-05T03:55:10;4.47;;;1.80;;
70866;SDS011;58487;53.474;49.470;2022-07-05T03:57:36;4.83;;;1.67;;
70866;SDS011;58487;53.474;49.470;2022-07-05T04:00:03;4.32;;;1.60;;
70866;SDS011;58487;53.474;49.470;2022-07-05T04:02:29;3.50;;;1.40;;
70866;SDS011;58487;53.474;49.470;2022-07-05T04:04:55;4.75;;;1.50;;
70866;SDS011;58487;53.474;49.470;2022-07-05T04:07:21;5.90;;;1.92;;
70866;SDS011;58487;53.474;49.470;2022-07-05T04:09:47;4.40;;;1.50;;
70866;SDS011;58487;53.474;49.470;2022-07-05T04:12:13;8.25;;;1.70;;
70866;SDS011;58487;53.474;49.470;2022-07-05T04:14:40;5.45;;;2.08;;
70866;SDS011;58487;53.474;49.470;2022-07-05T04:17:06;4.15;;;1.65;;
70866;SDS011;58487;53.474;49.470;2022-07-05T04:19:32;4.53;;;1.65;;
70866;SDS011;58487;53.474;49.470;2022-07-05T04:21:58;5.00;;;1.90;;
70866;SDS011;58487;53.474;49.470;2022-07-05T04:24:24;7.63;;;1.73;;
70866;SDS011;58487;53.474;49.470;2022-07-05T04:26:51;5.05;;;1.73;;
70866;SDS011;58487;53.474;49.470;2022-07-05T04:29:17;4.80;;;1.60;;
70866;SDS011;58487;53.474;49.470;2022-07-05T04:31:43;7.32;;;1.95;;
70866;SDS011;58487;53.474;49.470;2022-07-05T04:34:09;4.37;;;1.63;;
70866;SDS011;58487;53.474;49.470;2022-07-05T04:36:35;5.90;;;1.73;;
70866;SDS011;58487;53.474;49.470;2022-07-05T04:39:03;11.20;;;1.70;;
70866;SDS011;58487;53.474;49.470;2022-07-05T04:41:29;3.95;;;1.77;;
70866;SDS011;58487;53.474;49.470;2022-07-05T04:43:56;8.10;;;1.80;;
70866;SDS011;58487;53.474;49.470;2022-07-05T04:46:22;4.13;;;1.50;;
70866;SDS011;58487;53.474;49.470;2022-07-05T04:48:48;3.58;;;1.38;;
70866;SDS011;58487;53.474;49.470;2022-07-05T04:51:14;6.28;;;1.70;;
70866;SDS011;58487;53.474;49.470;2022-07-05T04:53:40;7.07;;;1.70;;
70866;SDS011;58487;53.474;49.470;2022-07-05T04:56:07;6.43;;;1.55;;
70866;SDS011;58487;53.474;49.470;2022-07-05T04:58:33;4.83;;;1.60;;
70866;SDS011;58487;53.474;49.470;2022-07-05T05:01:00;3.97;;;1.60;;
70866;SDS011;58487;53.474;49.470;2022-07-05T05:03:26;3.60;;;1.52;;
70866;SDS011;58487;53.474;49.470;2022-07-05T05:05:52;3.80;;;1.63;;
70866;SDS011;58487;53.474;49.470;2022-07-05T05:08:18;4.00;;;1.58;;
70866;SDS011;58487;53.474;49.470;2022-07-05T05:10:44;4.23;;;1.50;;
70866;SDS011;58487;53.474;49.470;2022-07-05T05:13:10;3.53;;;1.40;;
70866;SDS011;58487;53.474;49.470;2022-07-05T05:15:36;3.67;;;1.50;;
70866;SDS011;58487;53.474;49.470;2022-07-05T05:18:02;5.15;;;1.45;;
70866;SDS011;58487;53.474;49.470;2022-07-05T05:20:29;4.50;;;1.25;;
70866;SDS011;58487;53.474;49.470;2022-07-05T05:22:55;6.60;;;1.60;;
70866;SDS011;58487;53.474;49.470;2022-07-05T05:25:21;5.57;;;1.30;;
70866;SDS011;58487;53.474;49.470;2022-07-05T05:27:48;4.90;;;1.50;;
70866;SDS011;58487;53.474;49.470;2022-07-05T05:30:16;4.10;;;1.38;;
70866;SDS011;58487;53.474;49.470;2022-07-05T05:32:43;5.05;;;1.40;;
70866;SDS011;58487;53.474;49.470;2022-07-05T05:35:10;3.47;;;1.30;;
70866;SDS011;58487;53.474;49.470;2022-07-05T05:37:52;6.50;;;1.23;;
70866;SDS011;58487;53.474;49.470;2022-07-05T05:40:20;3.53;;;1.27;;
70866;SDS011;58487;53.474;49.470;2022-07-05T05:42:48;4.82;;;1.40;;
70866;SDS011;58487;53.474;49.470;2022-07-05T05:45:14;7.10;;;1.55;;
70866;SDS011;58487;53.474;49.470;2022-07-05T05:47:48;4.90;;;1.43;;
70866;SDS011;58487;53.474;49.470;2022-07-05T05:50:35;3.40;;;1.40;;
70866;SDS011;58487;53.474;49.470;2022-07-05T05:53:04;3.40;;;1.10;;
70866;SDS011;58487;53.474;49.470;2022-07-05T05:55:31;4.25;;;1.40;;
70866;SDS011;58487;53.474;49.470;2022-07-05T06:00:59;10.63;;;1.50;;
70866;SDS011;58487;53.474;49.470;2022-07-05T06:03:26;4.03;;;1.50;;
70866;SDS011;58487;53.474;49.470;2022-07-05T06:05:53;4.18;;;1.15;;
70866;SDS011;58487;53.474;49.470;2022-07-05T06:08:19;3.85;;;1.40;;
70866;SDS011;58487;53.474;49.470;2022-07-05T06:10:46;7.35;;;1.70;;
70866;SDS011;58487;53.474;49.470;2022-07-05T06:13:13;4.80;;;1.50;;
70866;SDS011;58487;53.474;49.470;2022-07-05T06:15:39;6.78;;;1.35;;
70866;SDS011;58487;53.474;49.470;2022-07-05T06:18:07;3.42;;;1.48;;
70866;SDS011;58487;53.474;49.470;2022-07-05T06:20:34;3.60;;;1.40;;
70866;SDS011;58487;53.474;49.470;2022-07-05T06:23:02;4.47;;;1.20;;
70866;SDS011;58487;53.474;49.470;2022-07-05T06:25:30;4.47;;;1.30;;
70866;SDS011;58487;53.474;49.470;2022-07-05T06:28:01;2.83;;;1.02;;
70866;SDS011;58487;53.474;49.470;2022-07-05T06:30:32;3.58;;;1.30;;
70866;SDS011;58487;53.474;49.470;2022-07-05T06:32:59;3.42;;;1.40;;
70866;SDS011;58487;53.474;49.470;2022-07-05T06:35:25;5.40;;;1.58;;
70866;SDS011;58487;53.474;49.470;2022-07-05T06:37:52;3.60;;;1.47;;
70866;SDS011;58487;53.474;49.470;2022-07-05T06:40:20;5.20;;;1.60;;
70866;SDS011;58487;53.474;49.470;2022-07-05T06:42:51;4.68;;;1.90;;
70866;SDS011;58487;53.474;49.470;2022-07-05T06:45:19;3.70;;;1.63;;
70866;SDS011;58487;53.474;49.470;2022-07-05T06:47:46;3.72;;;1.70;;
70866;SDS011;58487;53.474;49.470;2022-07-05T06:50:23;6.70;;;1.70;;
70866;SDS011;58487;53.474;49.470;2022-07-05T06:52:49;5.63;;;1.70;;
70866;SDS011;58487;53.474;49.470;2022-07-05T06:55:15;6.80;;;1.80;;
70866;SDS011;58487;53.474;49.470;2022-07-05T06:57:41;6.80;;;1.90;;
70866;SDS011;58487;53.474;49.470;2022-07-05T07:00:09;3.83;;;1.70;;
70866;SDS011;58487;53.474;49.470;2022-07-05T07:02:35;3.50;;;1.50;;
70866;SDS011;58487;53.474;49.470;2022-07-05T07:05:02;7.95;;;1.98;;
70866;SDS011;58487;53.474;49.470;2022-07-05T07:07:30;4.28;;;1.60;;
70866;SDS011;58487;53.474;49.470;2022-07-05T07:10:15;5.65;;;1.70;;
70866;SDS011;58487;53.474;49.470;2022-07-05T07:12:41;4.90;;;1.52;;
70866;SDS011;58487;53.474;49.470;2022-07-05T07:15:08;3.43;;;1.33;;
70866;SDS011;58487;53.474;49.470;2022-07-05T07:17:34;3.13;;;1.15;;
70866;SDS011;58487;53.474;49.470;2022-07-05T07:20:00;5.93;;;1.80;;
70866;SDS011;58487;53.474;49.470;2022-07-05T07:22:26;5.18;;;1.60;;
70866;SDS011;58487;53.474;49.470;2022-07-05T07:24:53;3.88;;;1.55;;
70866;SDS011;58487;53.474;49.470;2022-07-05T07:27:19;5.70;;;1.70;;
70866;SDS011;58487;53.474;49.470;2022-07-05T07:29:45;3.75;;;1.35;;
70866;SDS011;58487;53.474;49.470;2022-07-05T07:32:11;3.60;;;1.48;;
70866;SDS011;58487;53.474;49.470;2022-07-05T07:34:37;4.45;;;1.50;;
70866;SDS011;58487;53.474;49.470;2022-07-05T07:37:04;4.00;;;1.55;;
70866;SDS011;58487;53.474;49.470;2022-07-05T07:39:31;3.53;;;1.40;;
70866;SDS011;58487;53.474;49.470;2022-07-05T07:41:57;3.40;;;1.30;;
70866;SDS011;58487;53.474;49.470;2022-07-05T07:44:23;4.00;;;1.60;;
70866;SDS011;58487;53.474;49.470;2022-07-05T07:46:49;3.90;;;1.35;;
70866;SDS011;58487;53.474;49.470;2022-07-05T07:49:16;4.10;;;1.58;;
70866;SDS011;58487;53.474;49.470;2022-07-05T07:51:42;3.80;;;1.50;;
70866;SDS011;58487;53.474;49.470;2022-07-05T07:54:09;3.85;;;1.50;;
70866;SDS011;58487;53.474;49.470;2022-07-05T07:56:35;4.65;;;1.80;;
70866;SDS011;58487;53.474;49.470;2022-07-05T07:59:02;3.40;;;1.40;;
70866;SDS011;58487;53.474;49.470;2022-07-05T08:01:28;3.95;;;1.70;;
70866;SDS011;58487;53.474;49.470;2022-07-05T08:03:54;4.53;;;1.80;;
70866;SDS011;58487;53.474;49.470;2022-07-05T08:06:20;4.22;;;1.70;;
70866;SDS011;58487;53.474;49.470;2022-07-05T08:08:46;4.20;;;1.80;;
70866;SDS011;58487;53.474;49.470;2022-07-05T08:11:13;4.10;;;1.80;;
70866;SDS011;58487;53.474;49.470;2022-07-05T08:13:41;6.00;;;1.70;;
70866;SDS011;58487;53.474;49.470;2022-07-05T08:16:08;5.77;;;1.70;;
70866;SDS011;58487;53.474;49.470;2022-07-05T08:18:35;3.90;;;1.70;;
70866;SDS011;58487;53.474;49.470;2022-07-05T08:21:20;6.85;;;1.70;;
70866;SDS011;58487;53.474;49.470;2022-07-05T08:24:02;3.83;;;1.50;;
70866;SDS011;58487;53.474;49.470;2022-07-05T08:26:32;5.30;;;1.77;;
70866;SDS011;58487;53.474;49.470;2022-07-05T08:29:00;6.90;;;1.90;;
70866;SDS011;58487;53.474;49.470;2022-07-05T08:31:32;4.15;;;1.73;;
70866;SDS011;58487;53.474;49.470;2022-07-05T08:33:59;5.97;;;1.90;;
70866;SDS011;58487;53.474;49.470;2022-07-05T08:36:26;3.70;;;1.75;;
70866;SDS011;58487;53.474;49.470;2022-07-05T08:38:52;4.03;;;1.90;;
70866;SDS011;58487;53.474;49.470;2022-07-05T08:41:19;4.90;;;1.50;;
70866;SDS011;58487;53.474;49.470;2022-07-05T08:43:47;4.40;;;2.17;;
70866;SDS011;58487;53.474;49.470;2022-07-05T08:46:14;4.75;;;1.92;;
70866;SDS011;58487;53.474;49.470;2022-07-05T08:48:42;4.45;;;1.92;;
70866;SDS011;58487;53.474;49.470;2022-07-05T08:51:18;5.50;;;2.15;;
70866;SDS011;58487;53.474;49.470;2022-07-05T08:53:50;4.40;;;1.57;;
70866;SDS011;58487;53.474;49.470;2022-07-05T08:56:17;4.28;;;1.75;;
70866;SDS011;58487;53.474;49.470;2022-07-05T08:58:45;4.05;;;1.80;;
70866;SDS011;58487;53.474;49.470;2022-07-05T09:01:11;4.18;;;1.90;;
70866;SDS011;58487;53.474;49.470;2022-07-05T09:03:39;4.65;;;1.85;;
70866;SDS011;58487;53.474;49.470;2022-07-05T09:06:10;4.00;;;1.90;;
70866;SDS011;58487;53.474;49.470;2022-07-05T09:08:39;5.05;;;1.90;;
70866;SDS011;58487;53.474;49.470;2022-07-05T09:11:10;3.95;;;1.92;;
70866;SDS011;58487;53.474;49.470;2022-07-05T09:13:38;4.47;;;2.00;;
70866;SDS011;58487;53.474;49.470;2022-07-05T09:16:23;4.00;;;1.95;;
70866;SDS011;58487;53.474;49.470;2022-07-05T09:18:52;5.50;;;2.00;;
70866;SDS011;58487;53.474;49.470;2022-07-05T09:21:23;5.65;;;2.20;;
70866;SDS011;58487;53.474;49.470;2022-07-05T09:23:58;3.90;;;2.03;;
70866;SDS011;58487;53.474;49.470;2022-07-05T09:26:32;5.05;;;1.90;;
70866;SDS011;58487;53.474;49.470;2022-07-05T09:29:00;8.52;;;2.85;;
70866;SDS011;58487;53.474;49.470;2022-07-05T09:31:33;4.40;;;2.10;;
70866;SDS011;58487;53.474;49.470;2022-07-05T09:34:07;5.18;;;2.20;;
70866;SDS011;58487;53.474;49.470;2022-07-05T09:39:13;4.22;;;1.83;;
70866;SDS011;58487;53.474;49.470;2022-07-05T09:41:39;5.47;;;2.10;;
70866;SDS011;58487;53.474;49.470;2022-07-05T09:44:05;4.93;;;2.30;;
70866;SDS011;58487;53.474;49.470;2022-07-05T09:46:31;4.38;;;2.50;;
70866;SDS011;58487;53.474;49.470;2022-07-05T09:48:58;4.18;;;2.20;;
70866;SDS011;58487;53.474;49.470;2022-07-05T09:51:25;4.65;;;2.33;;
70866;SDS011;58487;53.474;49.470;2022-07-05T09:53:52;6.05;;;2.00;;
70866;SDS011;58487;53.474;49.470;2022-07-05T09:56:19;6.07;;;2.30;;
70866;SDS011;58487;53.474;49.470;2022-07-05T09:58:47;9.30;;;2.40;;
70866;SDS011;58487;53.474;49.470;2022-07-05T10:01:26;4.05;;;2.40;;
70866;SDS011;58487;53.474;49.470;2022-07-05T10:03:57;4.60;;;2.25;;
70866;SDS011;58487;53.474;49.470;2022-07-05T10:06:26;5.53;;;2.20;;
70866;SDS011;58487;53.474;49.470;2022-07-05T10:08:53;4.57;;;2.50;;
70866;SDS011;58487;53.474;49.470;2022-07-05T10:11:20;5.72;;;2.47;;
70866;SDS011;58487;53.474;49.470;2022-07-05T10:13:48;5.03;;;2.40;;
70866;SDS011;58487;53.474;49.470;2022-07-05T10:16:16;4.63;;;2.42;;
70866;SDS011;58487;53.474;49.470;2022-07-05T10:18:46;5.25;;;2.13;;
70866;SDS011;58487;53.474;49.470;2022-07-05T10:21:19;4.00;;;2.07;;
70866;SDS011;58487;53.474;49.470;2022-07-05T10:23:47;9.23;;;2.50;;
70866;SDS011;58487;53.474;49.470;2022-07-05T10:26:16;4.10;;;1.98;;
70866;SDS011;58487;53.474;49.470;2022-07-05T10:28:47;5.47;;;1.85;;
70866;SDS011;58487;53.474;49.470;2022-07-05T10:31:15;5.10;;;2.40;;
70866;SDS011;58487;53.474;49.470;2022-07-05T10:33:42;4.80;;;1.70;;
70866;SDS011;58487;53.474;49.470;2022-07-05T10:36:10;4.63;;;1.90;;
70866;SDS011;58487;53.474;49.470;2022-07-05T10:38:37;5.22;;;2.00;;
70866;SDS011;58487;53.474;49.470;2022-07-05T10:41:07;4.20;;;2.13;;
70866;SDS011;58487;53.474;49.470;2022-07-05T10:43:35;4.43;;;2.10;;
70866;SDS011;58487;53.474;49.470;2022-07-05T10:46:01;6.30;;;2.10;;
70866;SDS011;58487;53.474;49.470;2022-07-05T10:48:32;5.65;;;2.40;;
70866;SDS011;58487;53.474;49.470;2022-07-05T10:50:59;4.25;;;2.08;;
70866;SDS011;58487;53.474;49.470;2022-07-05T10:55:56;4.90;;;2.30;;
70866;SDS011;58487;53.474;49.470;2022-07-05T10:58:36;6.27;;;3.13;;
70866;SDS011;58487;53.474;49.470;2022-07-05T11:03:40;4.75;;;2.60;;
70866;SDS011;58487;53.474;49.470;2022-07-05T11:06:18;5.65;;;2.63;;
70866;SDS011;58487;53.474;49.470;2022-07-05T11:13:57;3.90;;;1.90;;
70866;SDS011;58487;53.474;49.470;2022-07-05T11:19:12;4.88;;;2.65;;
70866;SDS011;58487;53.474;49.470;2022-07-05T11:21:59;5.13;;;2.55;;
70866;SDS011;58487;53.474;49.470;2022-07-05T11:24:39;5.85;;;2.50;;
70866;SDS011;58487;53.474;49.470;2022-07-05T11:27:10;5.73;;;2.07;;
70866;SDS011;58487;53.474;49.470;2022-07-05T11:29:46;5.50;;;2.17;;
70866;SDS011;58487;53.474;49.470;2022-07-05T11:34:56;5.18;;;2.30;;
70866;SDS011;58487;53.474;49.470;2022-07-05T11:37:57;6.53;;;2.60;;
70866;SDS011;58487;53.474;49.470;2022-07-05T11:40:26;5.43;;;2.50;;
70866;SDS011;58487;53.474;49.470;2022-07-05T11:42:54;4.22;;;2.60;;
70866;SDS011;58487;53.474;49.470;2022-07-05T11:45:21;5.38;;;2.60;;
70866;SDS011;58487;53.474;49.470;2022-07-05T11:47:47;4.20;;;2.40;;
70866;SDS011;58487;53.474;49.470;2022-07-05T11:50:13;6.28;;;3.25;;
70866;SDS011;58487;53.474;49.470;2022-07-05T11:52:40;5.20;;;3.00;;
70866;SDS011;58487;53.474;49.470;2022-07-05T11:55:07;6.32;;;2.80;;
70866;SDS011;58487;53.474;49.470;2022-07-05T11:57:35;6.68;;;2.67;;
70866;SDS011;58487;53.474;49.470;2022-07-05T12:00:03;6.00;;;2.95;;
70866;SDS011;58487;53.474;49.470;2022-07-05T12:02:30;5.78;;;2.80;;
70866;SDS011;58487;53.474;49.470;2022-07-05T12:04:57;5.23;;;2.80;;
70866;SDS011;58487;53.474;49.470;2022-07-05T12:09:59;6.32;;;2.80;;
70866;SDS011;58487;53.474;49.470;2022-07-05T12:12:45;5.35;;;2.80;;
70866;SDS011;58487;53.474;49.470;2022-07-05T12:15:13;5.85;;;2.92;;
70866;SDS011;58487;53.474;49.470;2022-07-05T12:17:41;4.83;;;2.70;;
70866;SDS011;58487;53.474;49.470;2022-07-05T12:20:10;4.30;;;2.50;;
70866;SDS011;58487;53.474;49.470;2022-07-05T12:22:42;4.63;;;2.90;;
70866;SDS011;58487;53.474;49.470;2022-07-05T12:25:13;7.60;;;3.20;;
70866;SDS011;58487;53.474;49.470;2022-07-05T12:27:42;4.65;;;3.03;;
70866;SDS011;58487;53.474;49.470;2022-07-05T12:30:09;4.73;;;2.77;;
70866;SDS011;58487;53.474;49.470;2022-07-05T12:32:56;4.35;;;2.90;;
70866;SDS011;58487;53.474;49.470;2022-07-05T12:35:33;4.63;;;2.70;;
70866;SDS011;58487;53.474;49.470;2022-07-05T12:40:46;6.30;;;3.10;;
70866;SDS011;58487;53.474;49.470;2022-07-05T12:43:14;6.20;;;3.00;;
70866;SDS011;58487;53.474;49.470;2022-07-05T12:45:43;7.63;;;3.40;;
70866;SDS011;58487;53.474;49.470;2022-07-05T12:48:33;5.68;;;3.10;;
70866;SDS011;58487;53.474;49.470;2022-07-05T12:51:05;4.78;;;3.10;;
70866;SDS011;58487;53.474;49.470;2022-07-05T12:53:32;6.25;;;3.20;;
70866;SDS011;58487;53.474;49.470;2022-07-05T12:56:21;6.23;;;3.17;;
70866;SDS011;58487;53.474;49.470;2022-07-05T12:59:08;5.57;;;3.25;;
70866;SDS011;58487;53.474;49.470;2022-07-05T13:01:42;5.75;;;3.00;;
70866;SDS011;58487;53.474;49.470;2022-07-05T13:04:10;4.25;;;2.65;;
70866;SDS011;58487;53.474;49.470;2022-07-05T13:12:17;8.43;;;3.20;;
70866;SDS011;58487;53.474;49.470;2022-07-05T13:14:46;4.88;;;3.10;;
70866;SDS011;58487;53.474;49.470;2022-07-05T13:17:16;6.53;;;2.92;;
70866;SDS011;58487;53.474;49.470;2022-07-05T13:19:44;4.45;;;2.70;;
70866;SDS011;58487;53.474;49.470;2022-07-05T13:22:11;4.20;;;2.60;;
70866;SDS011;58487;53.474;49.470;2022-07-05T13:24:38;7.20;;;2.87;;
70866;SDS011;58487;53.474;49.470;2022-07-05T13:27:06;4.70;;;2.60;;
70866;SDS011;58487;53.474;49.470;2022-07-05T13:33:52;4.50;;;2.70;;
70866;SDS011;58487;53.474;49.470;2022-07-05T13:36:18;4.90;;;2.60;;
70866;SDS011;58487;53.474;49.470;2022-07-05T13:38:44;8.33;;;3.33;;
70866;SDS011;58487;53.474;49.470;2022-07-05T13:41:10;5.38;;;2.47;;
70866;SDS011;58487;53.474;49.470;2022-07-05T13:43:36;5.30;;;3.05;;
70866;SDS011;58487;53.474;49.470;2022-07-05T13:46:03;4.80;;;2.83;;
70866;SDS011;58487;53.474;49.470;2022-07-05T13:48:30;4.90;;;2.70;;
70866;SDS011;58487;53.474;49.470;2022-07-05T13:50:56;8.40;;;2.97;;
70866;SDS011;58487;53.474;49.470;2022-07-05T13:53:22;5.63;;;2.65;;
70866;SDS011;58487;53.474;49.470;2022-07-05T13:55:48;4.45;;;2.75;;
70866;SDS011;58487;53.474;49.470;2022-07-05T13:58:15;4.80;;;2.80;;
70866;SDS011;58487;53.474;49.470;2022-07-05T14:00:41;4.97;;;2.92;;
70866;SDS011;58487;53.474;49.470;2022-07-05T14:03:07;5.53;;;2.90;;
70866;SDS011;58487;53.474;49.470;2022-07-05T14:05:33;6.60;;;2.83;;
70866;SDS011;58487;53.474;49.470;2022-07-05T14:07:59;6.18;;;2.80;;
70866;SDS011;58487;53.474;49.470;2022-07-05T14:10:25;5.13;;;2.63;;
70866;SDS011;58487;53.474;49.470;2022-07-05T14:12:51;6.30;;;2.70;;
70866;SDS011;58487;53.474;49.470;2022-07-05T14:15:17;4.53;;;2.67;;
70866;SDS011;58487;53.474;49.470;2022-07-05T14:17:43;8.82;;;2.60;;
70866;SDS011;58487;53.474;49.470;2022-07-05T14:20:09;5.70;;;2.80;;
70866;SDS011;58487;53.474;49.470;2022-07-05T14:22:36;5.18;;;2.50;;
70866;SDS011;58487;53.474;49.470;2022-07-05T14:25:02;6.20;;;2.63;;
70866;SDS011;58487;53.474;49.470;2022-07-05T14:27:28;5.07;;;2.53;;
70866;SDS011;58487;53.474;49.470;2022-07-05T14:29:54;5.85;;;2.65;;
70866;SDS011;58487;53.474;49.470;2022-07-05T14:32:20;5.30;;;2.70;;
70866;SDS011;58487;53.474;49.470;2022-07-05T14:34:46;4.82;;;2.78;;
70866;SDS011;58487;53.474;49.470;2022-07-05T14:37:12;4.40;;;2.60;;
70866;SDS011;58487;53.474;49.470;2022-07-05T14:39:39;7.80;;;2.77;;
70866;SDS011;58487;53.474;49.470;2022-07-05T14:42:05;5.33;;;2.70;;
70866;SDS011;58487;53.474;49.470;2022-07-05T14:44:32;4.78;;;2.70;;
70866;SDS011;58487;53.474;49.470;2022-07-05T14:46:58;6.40;;;2.92;;
70866;SDS011;58487;53.474;49.470;2022-07-05T14:49:24;4.70;;;2.75;;
70866;SDS011;58487;53.474;49.470;2022-07-05T14:51:50;7.50;;;2.60;;
70866;SDS011;58487;53.474;49.470;2022-07-05T14:54:16;5.40;;;2.57;;
70866;SDS011;58487;53.474;49.470;2022-07-05T14:56:42;4.43;;;2.50;;
70866;SDS011;58487;53.474;49.470;2022-07-05T14:59:09;6.32;;;3.10;;
70866;SDS011;58487;53.474;49.470;2022-07-05T15:01:35;6.22;;;2.75;;
70866;SDS011;58487;53.474;49.470;2022-07-05T15:04:01;6.45;;;2.70;;
70866;SDS011;58487;53.474;49.470;2022-07-05T15:06:27;6.07;;;2.70;;
70866;SDS011;58487;53.474;49.470;2022-07-05T15:08:53;6.38;;;2.80;;
70866;SDS011;58487;53.474;49.470;2022-07-05T15:11:19;4.68;;;2.53;;
70866;SDS011;58487;53.474;49.470;2022-07-05T15:13:45;5.32;;;2.50;;